createdAt,value
2018-01-12T01:38:53.710Z,1023.42
2018-01-12T01:38:54.275Z,1023.40
2018-01-12T01:38:54.876Z,1023.48
2018-01-12T01:38:55.476Z,1023.47
2018-01-12T01:38:56.075Z,1023.45
2018-01-12T01:38:56.673Z,1023.45
2018-01-12T01:38:57.274Z,1023.45
2018-01-12T01:38:57.876Z,1023.41
2018-01-12T01:39:51.362Z,1023.46
2018-01-12T01:39:51.929Z,1023.45
2018-01-12T01:39:52.529Z,1023.46
2018-01-12T01:39:53.128Z,1023.42
2018-01-12T01:39:53.730Z,1023.45
2018-01-12T01:39:54.332Z,1023.43
2018-01-12T01:39:54.928Z,1023.44
2018-01-12T01:39:55.526Z,1023.44
2018-01-12T01:40:50.037Z,1023.44
2018-01-12T01:40:50.605Z,1023.46
2018-01-12T01:40:51.204Z,1023.43
2018-01-12T01:40:51.804Z,1023.43
2018-01-12T01:40:52.405Z,1023.44
2018-01-12T01:40:53.003Z,1023.46
2018-01-12T01:40:53.605Z,1023.44
2018-01-12T01:40:54.204Z,1023.43
2018-01-12T01:41:48.714Z,1023.42
2018-01-12T01:41:49.282Z,1023.45
2018-01-12T01:41:49.881Z,1023.44
2018-01-12T01:41:50.479Z,1023.44
2018-01-12T01:41:51.081Z,1023.43
2018-01-12T01:41:51.682Z,1023.45
2018-01-12T01:41:52.278Z,1023.46
2018-01-12T01:41:52.878Z,1023.45
2018-01-12T01:42:46.374Z,1023.46
2018-01-12T01:42:46.934Z,1023.46
2018-01-12T01:42:47.535Z,1023.44
2018-01-12T01:42:48.132Z,1023.43
2018-01-12T01:42:48.733Z,1023.41
2018-01-12T01:42:49.334Z,1023.43
2018-01-12T01:42:49.932Z,1023.45
2018-01-12T01:42:50.532Z,1023.45
2018-01-12T01:43:44.019Z,1023.42
2018-01-12T01:43:44.585Z,1023.47
2018-01-12T01:43:45.186Z,1023.45
2018-01-12T01:43:45.786Z,1023.47
2018-01-12T01:43:46.385Z,1023.47
2018-01-12T01:43:46.986Z,1023.44
2018-01-12T01:43:47.585Z,1023.43
2018-01-12T01:43:48.185Z,1023.41
2018-01-12T01:44:42.693Z,1023.44
2018-01-12T01:44:43.262Z,1023.40
2018-01-12T01:44:43.861Z,1023.45
2018-01-12T01:44:44.460Z,1023.46
2018-01-12T01:44:45.060Z,1023.41
2018-01-12T01:44:45.661Z,1023.42
2018-01-12T01:44:46.258Z,1023.44
2018-01-12T01:44:46.859Z,1023.44
2018-01-12T01:45:40.350Z,1023.46
2018-01-12T01:45:40.914Z,1023.43
2018-01-12T01:45:41.513Z,1023.45
2018-01-12T01:45:42.112Z,1023.44
2018-01-12T01:45:42.713Z,1023.45
2018-01-12T01:45:43.315Z,1023.44
2018-01-12T01:45:43.913Z,1023.45
2018-01-12T01:45:44.513Z,1023.48
2018-01-12T01:46:39.021Z,1023.44
2018-01-12T01:46:39.588Z,1023.49
2018-01-12T01:46:40.192Z,1023.45
2018-01-12T01:46:40.789Z,1023.47
2018-01-12T01:46:41.389Z,1023.42
2018-01-12T01:46:41.998Z,1023.45
2018-01-12T01:46:42.589Z,1023.43
2018-01-12T01:46:43.188Z,1023.48
2018-01-12T01:47:36.673Z,1023.46
2018-01-12T01:47:37.242Z,1023.47
2018-01-12T01:47:37.841Z,1023.44
2018-01-12T01:47:38.440Z,1023.42
2018-01-12T01:47:39.041Z,1023.42
2018-01-12T01:47:39.641Z,1023.43
2018-01-12T01:47:40.240Z,1023.45
2018-01-12T01:47:40.840Z,1023.40
2018-01-12T01:48:35.349Z,1023.45
2018-01-12T01:48:35.917Z,1023.47
2018-01-12T01:48:36.515Z,1023.44
2018-01-12T01:48:37.116Z,1023.43
2018-01-12T01:48:37.715Z,1023.45
2018-01-12T01:48:38.316Z,1023.43
2018-01-12T01:48:38.921Z,1023.43
2018-01-12T01:48:39.515Z,1023.44
2018-01-12T01:49:33.613Z,1023.45
2018-01-12T01:49:34.185Z,1023.45
2018-01-12T01:49:34.782Z,1023.46
2018-01-12T01:49:35.383Z,1023.48
2018-01-12T01:49:35.980Z,1023.44
2018-01-12T01:49:36.585Z,1023.46
2018-01-12T01:49:37.179Z,1023.44
2018-01-12T01:50:30.651Z,1023.47
2018-01-12T01:50:31.221Z,1023.49
2018-01-12T01:50:31.823Z,1023.47
2018-01-12T01:50:32.422Z,1023.47
2018-01-12T01:50:33.020Z,1023.48
2018-01-12T01:50:33.620Z,1023.47
2018-01-12T01:50:34.219Z,1023.43
2018-01-12T01:50:34.820Z,1023.47
2018-01-12T01:51:28.303Z,1023.42
2018-01-12T01:51:28.873Z,1023.45
2018-01-12T01:51:29.473Z,1023.45
2018-01-12T01:51:30.076Z,1023.44
2018-01-12T01:51:30.673Z,1023.42
2018-01-12T01:51:31.271Z,1023.45
2018-01-12T01:51:31.873Z,1023.46
2018-01-12T01:51:32.472Z,1023.44
2018-01-12T01:52:26.978Z,1023.47
2018-01-12T01:52:27.548Z,1023.46
2018-01-12T01:52:28.146Z,1023.46
2018-01-12T01:52:28.747Z,1023.45
2018-01-12T01:52:29.348Z,1023.49
2018-01-12T01:52:29.947Z,1023.46
2018-01-12T01:52:30.548Z,1023.45
2018-01-12T01:52:31.146Z,1023.45
2018-01-12T01:53:24.631Z,1023.47
2018-01-12T01:53:25.201Z,1023.47
2018-01-12T01:53:25.801Z,1023.48
2018-01-12T01:53:26.401Z,1023.50
2018-01-12T01:53:27.000Z,1023.47
2018-01-12T01:53:27.600Z,1023.46
2018-01-12T01:53:28.199Z,1023.49
2018-01-12T01:53:28.800Z,1023.49
2018-01-12T01:54:22.281Z,1023.47
2018-01-12T01:54:22.852Z,1023.46
2018-01-12T01:54:23.452Z,1023.46
2018-01-12T01:54:24.052Z,1023.46
2018-01-12T01:54:24.652Z,1023.49
2018-01-12T01:54:25.251Z,1023.48
2018-01-12T01:54:25.852Z,1023.46
2018-01-12T01:54:26.452Z,1023.51
2018-01-12T01:55:20.958Z,1023.48
2018-01-12T01:55:21.527Z,1023.49
2018-01-12T01:55:22.127Z,1023.50
2018-01-12T01:55:22.727Z,1023.49
2018-01-12T01:55:23.327Z,1023.49
2018-01-12T01:55:23.926Z,1023.51
2018-01-12T01:55:24.526Z,1023.54
2018-01-12T01:55:25.126Z,1023.51
2018-01-12T01:56:18.613Z,1023.52
2018-01-12T01:56:19.180Z,1023.49
2018-01-12T01:56:19.778Z,1023.51
2018-01-12T01:56:20.378Z,1023.52
2018-01-12T01:56:20.980Z,1023.56
2018-01-12T01:56:21.579Z,1023.51
2018-01-12T01:56:22.178Z,1023.51
2018-01-12T01:56:22.777Z,1023.51
2018-01-12T01:57:16.261Z,1023.49
2018-01-12T01:57:16.831Z,1023.56
2018-01-12T01:57:17.444Z,1023.51
2018-01-12T01:57:18.031Z,1023.54
2018-01-12T01:57:18.632Z,1023.54
2018-01-12T01:57:19.231Z,1023.55
2018-01-12T01:57:19.830Z,1023.54
2018-01-12T01:57:20.430Z,1023.53
2018-01-12T01:58:14.941Z,1023.60
2018-01-12T01:58:15.505Z,1023.56
2018-01-12T01:58:16.106Z,1023.53
2018-01-12T01:58:16.705Z,1023.56
2018-01-12T01:58:17.306Z,1023.53
2018-01-12T01:58:17.906Z,1023.56
2018-01-12T01:58:18.518Z,1023.56
2018-01-12T01:58:19.105Z,1023.57
2018-01-12T01:59:13.611Z,1023.55
2018-01-12T01:59:14.183Z,1023.56
2018-01-12T01:59:14.782Z,1023.57
2018-01-12T01:59:15.381Z,1023.58
2018-01-12T01:59:15.982Z,1023.58
2018-01-12T01:59:16.580Z,1023.58
2018-01-12T01:59:17.181Z,1023.59
2018-01-12T01:59:17.781Z,1023.60
2018-01-12T02:00:11.268Z,1023.58
2018-01-12T02:00:11.834Z,1023.62
2018-01-12T02:00:12.434Z,1023.63
2018-01-12T02:00:13.034Z,1023.57
2018-01-12T02:00:13.633Z,1023.59
2018-01-12T02:00:14.233Z,1023.57
2018-01-12T02:00:14.838Z,1023.60
2018-01-12T02:00:15.436Z,1023.60
2018-01-12T02:01:08.917Z,1023.66
2018-01-12T02:01:09.486Z,1023.63
2018-01-12T02:01:10.087Z,1023.60
2018-01-12T02:01:10.689Z,1023.60
2018-01-12T02:01:11.286Z,1023.63
2018-01-12T02:01:11.885Z,1023.60
2018-01-12T02:01:12.485Z,1023.62
2018-01-12T02:01:13.084Z,1023.63
2018-01-12T02:02:06.573Z,1023.60
2018-01-12T02:02:07.138Z,1023.62
2018-01-12T02:02:07.743Z,1023.62
2018-01-12T02:02:08.337Z,1023.62
2018-01-12T02:02:08.937Z,1023.59
2018-01-12T02:02:09.538Z,1023.64
2018-01-12T02:02:10.136Z,1023.64
2018-01-12T02:02:10.736Z,1023.63
2018-01-12T02:03:04.224Z,1023.63
2018-01-12T02:03:04.789Z,1023.60
2018-01-12T02:03:05.390Z,1023.60
2018-01-12T02:03:05.990Z,1023.62
2018-01-12T02:03:06.590Z,1023.62
2018-01-12T02:03:07.189Z,1023.62
2018-01-12T02:03:07.791Z,1023.65
2018-01-12T02:03:08.389Z,1023.65
2018-01-12T02:04:02.898Z,1023.67
2018-01-12T02:04:03.464Z,1023.64
2018-01-12T02:04:04.065Z,1023.64
2018-01-12T02:04:04.697Z,1023.63
2018-01-12T02:04:05.264Z,1023.62
2018-01-12T02:04:05.865Z,1023.61
2018-01-12T02:04:06.466Z,1023.61
2018-01-12T02:04:07.062Z,1023.60
2018-01-12T02:05:00.550Z,1023.62
2018-01-12T02:05:01.118Z,1023.67
2018-01-12T02:05:01.716Z,1023.66
2018-01-12T02:05:02.316Z,1023.68
2018-01-12T02:05:02.917Z,1023.62
2018-01-12T02:05:03.517Z,1023.63
2018-01-12T02:05:04.117Z,1023.61
2018-01-12T02:05:04.715Z,1023.64
2018-01-12T02:05:58.202Z,1023.61
2018-01-12T02:05:58.769Z,1023.65
2018-01-12T02:05:59.368Z,1023.64
2018-01-12T02:05:59.967Z,1023.63
2018-01-12T02:06:00.568Z,1023.62
2018-01-12T02:06:01.167Z,1023.67
2018-01-12T02:06:01.768Z,1023.62
2018-01-12T02:06:02.368Z,1023.66
2018-01-12T02:06:56.874Z,1023.64
2018-01-12T02:06:57.495Z,1023.64
2018-01-12T02:06:58.046Z,1023.63
2018-01-12T02:06:58.641Z,1023.66
2018-01-12T02:06:59.242Z,1023.65
2018-01-12T02:06:59.841Z,1023.62
2018-01-12T02:07:00.441Z,1023.63
2018-01-12T02:07:01.040Z,1023.63
2018-01-12T02:07:54.530Z,1023.65
2018-01-12T02:07:55.096Z,1023.64
2018-01-12T02:07:55.696Z,1023.62
2018-01-12T02:07:56.296Z,1023.63
2018-01-12T02:07:56.897Z,1023.64
2018-01-12T02:07:57.495Z,1023.62
2018-01-12T02:07:58.096Z,1023.61
2018-01-12T02:07:58.694Z,1023.64
2018-01-12T02:08:52.181Z,1023.65
2018-01-12T02:08:52.747Z,1023.68
2018-01-12T02:08:53.346Z,1023.64
2018-01-12T02:08:53.946Z,1023.65
2018-01-12T02:08:54.547Z,1023.64
2018-01-12T02:08:55.147Z,1023.63
2018-01-12T02:08:55.749Z,1023.64
2018-01-12T02:08:56.347Z,1023.62
2018-01-12T02:09:49.833Z,1023.65
2018-01-12T02:09:50.400Z,1023.63
2018-01-12T02:09:50.998Z,1023.63
2018-01-12T02:09:51.600Z,1023.58
2018-01-12T02:09:52.198Z,1023.62
2018-01-12T02:09:52.798Z,1023.64
2018-01-12T02:09:53.399Z,1023.66
2018-01-12T02:09:54.000Z,1023.63
2018-01-12T02:10:48.573Z,1023.65
2018-01-12T02:10:49.080Z,1023.63
2018-01-12T02:10:49.678Z,1023.64
2018-01-12T02:10:50.280Z,1023.62
2018-01-12T02:10:50.906Z,1023.62
2018-01-12T02:10:51.478Z,1023.67
2018-01-12T02:10:52.078Z,1023.70
2018-01-12T02:10:52.678Z,1023.71
2018-01-12T02:11:46.160Z,1023.65
2018-01-12T02:11:46.727Z,1023.65
2018-01-12T02:11:47.326Z,1023.65
2018-01-12T02:11:47.925Z,1023.66
2018-01-12T02:11:48.526Z,1023.64
2018-01-12T02:11:49.129Z,1023.67
2018-01-12T02:11:49.726Z,1023.66
2018-01-12T02:11:50.326Z,1023.66
2018-01-12T02:12:47.804Z,1023.66
2018-01-12T02:12:48.370Z,1023.68
2018-01-12T02:12:48.970Z,1023.68
2018-01-12T02:14:06.039Z,1023.64
2018-01-12T02:14:06.605Z,1023.67
2018-01-12T02:14:07.205Z,1023.67
2018-01-12T02:14:07.804Z,1023.64
2018-01-12T02:15:02.873Z,1023.67
2018-01-12T02:15:03.437Z,1023.70
2018-01-12T02:15:04.037Z,1023.68
2018-01-12T02:15:04.637Z,1023.67
2018-01-12T02:15:05.237Z,1023.64
2018-01-12T02:15:05.839Z,1023.63
2018-01-12T02:16:00.914Z,1023.67
2018-01-12T02:16:01.422Z,1023.71
2018-01-12T02:16:02.021Z,1023.68
2018-01-12T02:16:02.619Z,1023.68
2018-01-12T02:16:03.220Z,1023.69
2018-01-12T02:16:03.820Z,1023.72
2018-01-12T02:16:04.419Z,1023.70
2018-01-12T02:16:05.022Z,1023.69
2018-01-12T02:16:59.514Z,1023.70
2018-01-12T02:17:00.075Z,1023.69
2018-01-12T02:17:00.671Z,1023.66
2018-01-12T02:17:01.275Z,1023.67
2018-01-12T02:17:01.874Z,1023.70
2018-01-12T02:17:02.475Z,1023.68
2018-01-12T02:17:03.072Z,1023.67
2018-01-12T02:17:03.671Z,1023.66
2018-01-12T02:17:58.178Z,1023.73
2018-01-12T02:17:58.747Z,1023.70
2018-01-12T02:17:59.348Z,1023.71
2018-01-12T02:17:59.949Z,1023.65
2018-01-12T02:18:00.549Z,1023.73
2018-01-12T02:18:01.154Z,1023.76
2018-01-12T02:18:01.745Z,1023.70
2018-01-12T02:18:02.344Z,1023.69
2018-01-12T02:18:56.854Z,1023.73
2018-01-12T02:18:57.424Z,1023.76
2018-01-12T02:18:58.023Z,1023.73
2018-01-12T02:18:58.624Z,1023.73
2018-01-12T02:18:59.224Z,1023.74
2018-01-12T02:18:59.824Z,1023.73
2018-01-12T02:19:00.423Z,1023.76
2018-01-12T02:19:01.023Z,1023.74
2018-01-12T02:19:54.509Z,1023.77
2018-01-12T02:19:55.078Z,1023.74
2018-01-12T02:19:55.676Z,1023.74
2018-01-12T02:19:56.277Z,1023.73
2018-01-12T02:19:56.876Z,1023.75
2018-01-12T02:19:57.479Z,1023.76
2018-01-12T02:19:58.084Z,1023.76
2018-01-12T02:19:58.675Z,1023.77
2018-01-12T02:20:52.246Z,1023.80
2018-01-12T02:20:52.755Z,1023.77
2018-01-12T02:20:53.354Z,1023.76
2018-01-12T02:20:53.952Z,1023.76
2018-01-12T02:20:54.553Z,1023.77
2018-01-12T02:20:55.156Z,1023.79
2018-01-12T02:20:55.752Z,1023.75
2018-01-12T02:20:56.354Z,1023.78
2018-01-12T02:21:49.912Z,1023.77
2018-01-12T02:21:50.483Z,1023.79
2018-01-12T02:21:51.081Z,1023.79
2018-01-12T02:21:51.681Z,1023.78
2018-01-12T02:21:52.281Z,1023.73
2018-01-12T02:21:52.883Z,1023.76
2018-01-12T02:21:53.480Z,1023.76
2018-01-12T02:21:54.081Z,1023.79
2018-01-12T02:22:47.567Z,1023.80
2018-01-12T02:22:48.134Z,1023.83
2018-01-12T02:22:48.732Z,1023.81
2018-01-12T02:22:49.333Z,1023.77
2018-01-12T02:22:49.933Z,1023.76
2018-01-12T02:22:50.532Z,1023.78
2018-01-12T02:22:51.133Z,1023.77
2018-01-12T02:22:51.733Z,1023.77
2018-01-12T02:23:45.220Z,1023.76
2018-01-12T02:23:45.784Z,1023.77
2018-01-12T02:23:46.383Z,1023.76
2018-01-12T02:23:46.985Z,1023.78
2018-01-12T02:23:47.585Z,1023.79
2018-01-12T02:23:48.184Z,1023.80
2018-01-12T02:23:48.785Z,1023.80
2018-01-12T02:23:49.385Z,1023.81
2018-01-12T02:24:42.870Z,1023.81
2018-01-12T02:24:43.437Z,1023.80
2018-01-12T02:24:44.037Z,1023.78
2018-01-12T02:24:44.640Z,1023.77
2018-01-12T02:24:45.235Z,1023.77
2018-01-12T02:24:45.835Z,1023.78
2018-01-12T02:24:46.435Z,1023.80
2018-01-12T02:24:47.038Z,1023.82
2018-01-12T02:25:40.521Z,1023.79
2018-01-12T02:25:41.092Z,1023.80
2018-01-12T02:25:41.692Z,1023.79
2018-01-12T02:25:42.288Z,1023.80
2018-01-12T02:25:42.890Z,1023.80
2018-01-12T02:25:43.488Z,1023.80
2018-01-12T02:25:44.088Z,1023.81
2018-01-12T02:25:44.687Z,1023.80
2018-01-12T02:26:38.172Z,1023.81
2018-01-12T02:26:38.739Z,1023.82
2018-01-12T02:26:39.339Z,1023.79
2018-01-12T02:26:39.939Z,1023.79
2018-01-12T02:26:40.540Z,1023.81
2018-01-12T02:26:41.139Z,1023.83
2018-01-12T02:26:41.740Z,1023.81
2018-01-12T02:26:42.348Z,1023.84
2018-01-12T02:27:35.823Z,1023.79
2018-01-12T02:27:36.392Z,1023.79
2018-01-12T02:27:36.990Z,1023.78
2018-01-12T02:27:37.591Z,1023.78
2018-01-12T02:27:38.191Z,1023.82
2018-01-12T02:27:38.791Z,1023.82
2018-01-12T02:27:39.393Z,1023.80
2018-01-12T02:27:39.990Z,1023.81
2018-01-12T02:28:33.475Z,1023.81
2018-01-12T02:28:34.043Z,1023.83
2018-01-12T02:28:34.643Z,1023.84
2018-01-12T02:28:35.242Z,1023.81
2018-01-12T02:28:35.842Z,1023.82
2018-01-12T02:28:36.442Z,1023.84
2018-01-12T02:28:37.043Z,1023.82
2018-01-12T02:28:37.642Z,1023.82
2018-01-12T02:29:31.127Z,1023.82
2018-01-12T02:29:31.695Z,1023.82
2018-01-12T02:29:32.294Z,1023.82
2018-01-12T02:29:32.894Z,1023.80
2018-01-12T02:29:33.495Z,1023.81
2018-01-12T02:29:34.095Z,1023.80
2018-01-12T02:29:34.696Z,1023.86
2018-01-12T02:29:35.294Z,1023.83
2018-01-12T02:30:28.780Z,1023.83
2018-01-12T02:30:29.350Z,1023.81
2018-01-12T02:30:29.946Z,1023.78
2018-01-12T02:30:30.546Z,1023.83
2018-01-12T02:30:31.149Z,1023.83
2018-01-12T02:30:31.746Z,1023.80
2018-01-12T02:30:32.347Z,1023.82
2018-01-12T02:30:32.946Z,1023.82
2018-01-12T02:31:26.430Z,1023.84
2018-01-12T02:31:26.997Z,1023.82
2018-01-12T02:31:27.597Z,1023.84
2018-01-12T02:31:28.198Z,1023.81
2018-01-12T02:31:28.797Z,1023.81
2018-01-12T02:31:29.398Z,1023.84
2018-01-12T02:31:29.998Z,1023.80
2018-01-12T02:31:30.600Z,1023.79
2018-01-12T02:32:24.080Z,1023.80
2018-01-12T02:32:24.650Z,1023.82
2018-01-12T02:32:25.251Z,1023.81
2018-01-12T02:32:25.850Z,1023.83
2018-01-12T02:32:26.451Z,1023.83
2018-01-12T02:32:27.049Z,1023.84
2018-01-12T02:32:27.649Z,1023.79
2018-01-12T02:32:28.255Z,1023.83
2018-01-12T02:33:22.760Z,1023.80
2018-01-12T02:33:23.325Z,1023.77
2018-01-12T02:33:23.925Z,1023.83
2018-01-12T02:33:24.526Z,1023.78
2018-01-12T02:33:25.127Z,1023.80
2018-01-12T02:33:25.724Z,1023.82
2018-01-12T02:33:26.324Z,1023.78
2018-01-12T02:33:27.003Z,1023.78
2018-01-12T02:52:37.320Z,1023.90
2018-01-12T02:52:37.889Z,1023.92
2018-01-12T02:52:38.489Z,1023.88
2018-01-12T02:52:39.092Z,1023.91
2018-01-12T02:52:39.690Z,1023.91
2018-01-12T02:52:40.289Z,1023.88
2018-01-12T02:52:40.886Z,1023.91
2018-01-12T02:52:41.488Z,1023.91
2018-01-12T02:53:34.974Z,1023.89
2018-01-12T02:53:35.541Z,1023.89
2018-01-12T02:53:36.143Z,1023.91
2018-01-12T02:53:36.742Z,1023.94
2018-01-12T02:53:37.341Z,1023.92
2018-01-12T02:53:37.942Z,1023.92
2018-01-12T02:53:38.542Z,1023.93
2018-01-12T02:53:39.141Z,1023.90
2018-01-12T02:54:32.634Z,1023.94
2018-01-12T02:54:33.202Z,1023.90
2018-01-12T02:54:33.800Z,1023.90
2018-01-12T02:54:34.393Z,1023.87
2018-01-12T02:54:34.992Z,1023.93
2018-01-12T02:54:35.598Z,1023.91
2018-01-12T02:54:36.192Z,1023.92
2018-01-12T02:54:36.792Z,1023.93
2018-01-12T02:55:30.277Z,1023.91
2018-01-12T02:55:30.848Z,1023.89
2018-01-12T02:55:31.445Z,1023.91
2018-01-12T02:55:32.048Z,1023.90
2018-01-12T02:55:32.647Z,1023.87
2018-01-12T02:55:33.253Z,1023.88
2018-01-12T02:55:33.845Z,1023.88
2018-01-12T02:55:34.444Z,1023.89
2018-01-12T02:56:28.953Z,1023.88
2018-01-12T02:56:29.581Z,1023.88
2018-01-12T02:56:30.122Z,1023.91
2018-01-12T02:56:30.722Z,1023.87
2018-01-12T02:56:31.321Z,1023.94
2018-01-12T02:56:31.920Z,1023.91
2018-01-12T02:56:32.531Z,1023.93
2018-01-12T02:56:33.119Z,1023.93
2018-01-12T02:57:27.629Z,1023.91
2018-01-12T02:57:28.197Z,1023.85
2018-01-12T02:57:28.796Z,1023.86
2018-01-12T02:57:29.396Z,1023.90
2018-01-12T02:57:29.997Z,1023.88
2018-01-12T02:57:30.599Z,1023.85
2018-01-12T02:57:31.195Z,1023.87
2018-01-12T02:57:31.796Z,1023.89
2018-01-12T02:58:26.305Z,1023.88
2018-01-12T02:58:26.873Z,1023.87
2018-01-12T02:58:27.474Z,1023.88
2018-01-12T02:58:28.073Z,1023.89
2018-01-12T02:58:28.672Z,1023.87
2018-01-12T02:58:29.275Z,1023.88
2018-01-12T02:58:29.873Z,1023.87
2018-01-12T02:58:30.472Z,1023.89
2018-01-12T02:59:23.956Z,1023.91
2018-01-12T02:59:24.535Z,1023.88
2018-01-12T02:59:25.125Z,1023.87
2018-01-12T02:59:25.725Z,1023.90
2018-01-12T02:59:26.325Z,1023.88
2018-01-12T02:59:26.925Z,1023.88
2018-01-12T02:59:27.546Z,1023.89
2018-01-12T02:59:28.125Z,1023.90
2018-01-12T03:00:22.635Z,1023.87
2018-01-12T03:00:23.201Z,1023.87
2018-01-12T03:00:23.803Z,1023.88
2018-01-12T03:00:24.402Z,1023.87
2018-01-12T03:00:25.003Z,1023.87
2018-01-12T03:00:25.604Z,1023.88
2018-01-12T03:00:26.199Z,1023.89
2018-01-12T03:00:26.807Z,1023.87
2018-01-12T03:01:20.288Z,1023.91
2018-01-12T03:01:20.854Z,1023.85
2018-01-12T03:01:21.455Z,1023.87
2018-01-12T03:01:22.053Z,1023.86
2018-01-12T03:01:22.653Z,1023.87
2018-01-12T03:01:23.253Z,1023.87
2018-01-12T03:01:23.853Z,1023.87
2018-01-12T03:01:24.455Z,1023.89
2018-01-12T03:02:17.938Z,1023.90
2018-01-12T03:02:18.565Z,1023.88
2018-01-12T03:02:19.105Z,1023.88
2018-01-12T03:02:19.704Z,1023.91
2018-01-12T03:02:20.304Z,1023.89
2018-01-12T03:02:20.904Z,1023.84
2018-01-12T03:02:21.504Z,1023.88
2018-01-12T03:02:22.103Z,1023.87
2018-01-12T03:03:16.613Z,1023.88
2018-01-12T03:03:17.181Z,1023.93
2018-01-12T03:03:17.781Z,1023.89
2018-01-12T03:03:18.384Z,1023.89
2018-01-12T03:03:18.987Z,1023.88
2018-01-12T03:03:19.580Z,1023.91
2018-01-12T03:03:20.179Z,1023.93
2018-01-12T03:03:20.780Z,1023.91
2018-01-12T03:04:15.290Z,1023.87
2018-01-12T03:04:15.856Z,1023.91
2018-01-12T03:04:16.456Z,1023.88
2018-01-12T03:04:17.055Z,1023.86
2018-01-12T03:04:17.655Z,1023.91
2018-01-12T03:04:18.257Z,1023.88
2018-01-12T03:04:18.857Z,1023.89
2018-01-12T03:04:19.463Z,1023.89
2018-01-12T03:05:13.965Z,1023.91
2018-01-12T03:05:14.532Z,1023.88
2018-01-12T03:05:15.131Z,1023.86
2018-01-12T03:05:15.732Z,1023.86
2018-01-12T03:05:16.345Z,1023.85
2018-01-12T03:05:16.932Z,1023.88
2018-01-12T03:05:17.530Z,1023.90
2018-01-12T03:05:18.131Z,1023.90
2018-01-12T03:06:12.642Z,1023.92
2018-01-12T03:06:13.209Z,1023.89
2018-01-12T03:06:13.813Z,1023.89
2018-01-12T03:06:14.407Z,1023.88
2018-01-12T03:06:15.008Z,1023.92
2018-01-12T03:06:15.608Z,1023.92
2018-01-12T03:06:16.215Z,1023.93
2018-01-12T03:06:16.807Z,1023.92
2018-01-12T03:07:11.315Z,1023.96
2018-01-12T03:07:11.882Z,1023.94
2018-01-12T03:07:12.484Z,1023.90
2018-01-12T03:07:13.083Z,1023.94
2018-01-12T03:07:13.686Z,1023.91
2018-01-12T03:07:14.282Z,1023.92
2018-01-12T03:07:14.882Z,1023.93
2018-01-12T03:07:15.482Z,1023.93
2018-01-12T03:08:09.997Z,1023.93
2018-01-12T03:08:10.559Z,1023.94
2018-01-12T03:08:11.208Z,1023.98
2018-01-12T03:08:11.759Z,1023.94
2018-01-12T03:08:12.358Z,1023.91
2018-01-12T03:08:12.959Z,1023.92
2018-01-12T03:08:13.559Z,1023.95
2018-01-12T03:08:14.159Z,1023.93
2018-01-12T03:09:07.643Z,1023.94
2018-01-12T03:09:08.215Z,1023.93
2018-01-12T03:09:08.812Z,1023.92
2018-01-12T03:09:09.411Z,1023.93
2018-01-12T03:09:10.013Z,1023.96
2018-01-12T03:09:10.612Z,1023.90
2018-01-12T03:09:11.211Z,1023.94
2018-01-12T03:09:11.811Z,1023.94
2018-01-12T03:10:06.319Z,1023.94
2018-01-12T03:10:06.886Z,1023.93
2018-01-12T03:10:07.487Z,1023.91
2018-01-12T03:10:08.087Z,1023.93
2018-01-12T03:10:08.688Z,1023.95
2018-01-12T03:10:09.286Z,1023.93
2018-01-12T03:10:09.886Z,1023.93
2018-01-12T03:10:10.484Z,1023.91
2018-01-12T03:11:03.971Z,1023.91
2018-01-12T03:11:04.541Z,1023.93
2018-01-12T03:11:05.139Z,1023.91
2018-01-12T03:11:05.739Z,1023.93
2018-01-12T03:11:06.341Z,1023.96
2018-01-12T03:11:06.940Z,1023.94
2018-01-12T03:11:07.538Z,1023.94
2018-01-12T03:11:08.141Z,1023.95
2018-01-12T03:12:02.648Z,1023.91
2018-01-12T03:12:03.216Z,1023.91
2018-01-12T03:12:03.814Z,1023.88
2018-01-12T03:12:04.414Z,1023.89
2018-01-12T03:12:05.015Z,1023.94
2018-01-12T03:12:05.613Z,1023.94
2018-01-12T03:12:06.213Z,1023.89
2018-01-12T03:12:06.813Z,1023.91
2018-01-12T03:13:00.298Z,1023.94
2018-01-12T03:13:00.868Z,1023.95
2018-01-12T03:13:01.467Z,1023.94
2018-01-12T03:13:02.067Z,1023.95
2018-01-12T03:13:02.667Z,1023.91
2018-01-12T03:13:03.265Z,1023.92
2018-01-12T03:13:03.869Z,1023.93
2018-01-12T03:13:04.465Z,1023.94
2018-01-12T03:13:58.977Z,1023.93
2018-01-12T03:13:59.543Z,1023.90
2018-01-12T03:14:00.140Z,1023.91
2018-01-12T03:14:00.742Z,1023.91
2018-01-12T03:14:01.401Z,1023.88
2018-01-12T03:14:01.942Z,1023.89
2018-01-12T03:14:02.556Z,1023.85
2018-01-12T03:14:03.140Z,1023.90
2018-01-12T03:14:57.668Z,1023.90
2018-01-12T03:14:58.216Z,1023.89
2018-01-12T03:14:58.817Z,1023.89
2018-01-12T03:14:59.417Z,1023.88
2018-01-12T03:15:00.018Z,1023.90
2018-01-12T03:15:00.616Z,1023.92
2018-01-12T03:15:01.216Z,1023.89
2018-01-12T03:15:01.816Z,1023.90
2018-01-12T03:15:56.326Z,1023.96
2018-01-12T03:15:56.894Z,1023.92
2018-01-12T03:15:57.493Z,1023.95
2018-01-12T03:15:58.091Z,1023.90
2018-01-12T03:15:58.694Z,1023.92
2018-01-12T03:15:59.297Z,1023.94
2018-01-12T03:15:59.891Z,1023.93
2018-01-12T03:16:00.491Z,1023.92
2018-01-12T03:16:53.977Z,1023.95
2018-01-12T03:16:54.546Z,1023.93
2018-01-12T03:16:55.145Z,1023.91
2018-01-12T03:16:55.746Z,1023.94
2018-01-12T03:16:56.349Z,1023.90
2018-01-12T03:16:56.946Z,1023.90
2018-01-12T03:16:57.544Z,1023.92
2018-01-12T03:16:58.145Z,1023.94
2018-01-12T03:17:51.629Z,1023.91
2018-01-12T03:17:52.197Z,1023.90
2018-01-12T03:17:52.796Z,1023.96
2018-01-12T03:17:53.396Z,1023.92
2018-01-12T03:17:53.996Z,1023.94
2018-01-12T03:17:54.596Z,1023.92
2018-01-12T03:17:55.200Z,1023.94
2018-01-12T03:17:55.796Z,1023.96
2018-01-12T03:18:50.304Z,1023.97
2018-01-12T03:18:50.873Z,1023.95
2018-01-12T03:18:51.471Z,1023.94
2018-01-12T03:18:52.071Z,1023.93
2018-01-12T03:18:52.672Z,1023.96
2018-01-12T03:18:53.272Z,1023.96
2018-01-12T03:18:53.870Z,1023.93
2018-01-12T03:18:54.470Z,1023.98
2018-01-12T03:19:47.955Z,1023.96
2018-01-12T03:19:48.525Z,1023.92
2018-01-12T03:19:49.125Z,1023.93
2018-01-12T03:19:49.725Z,1023.95
2018-01-12T03:19:50.329Z,1023.95
2018-01-12T03:19:50.924Z,1023.94
2018-01-12T03:19:51.523Z,1023.96
2018-01-12T03:19:52.124Z,1023.91
2018-01-12T03:20:45.608Z,1023.97
2018-01-12T03:20:46.179Z,1023.98
2018-01-12T03:20:46.776Z,1023.98
2018-01-12T03:20:47.376Z,1023.96
2018-01-12T03:20:47.974Z,1024.00
2018-01-12T03:20:48.576Z,1023.96
2018-01-12T03:20:49.176Z,1023.99
2018-01-12T03:20:49.774Z,1023.98
2018-01-12T03:21:44.282Z,1023.97
2018-01-12T03:21:44.851Z,1024.00
2018-01-12T03:21:45.458Z,1023.99
2018-01-12T03:21:46.050Z,1023.99
2018-01-12T03:21:46.650Z,1023.96
2018-01-12T03:21:47.252Z,1023.99
2018-01-12T03:21:47.849Z,1023.96
2018-01-12T03:21:48.448Z,1023.96
2018-01-12T03:22:42.958Z,1024.01
2018-01-12T03:22:43.527Z,1024.00
2018-01-12T03:22:44.126Z,1024.01
2018-01-12T03:22:44.727Z,1023.97
2018-01-12T03:22:45.326Z,1023.98
2018-01-12T03:22:45.927Z,1024.02
2018-01-12T03:22:46.526Z,1023.97
2018-01-12T03:22:47.126Z,1024.01
2018-01-12T03:23:40.609Z,1024.02
2018-01-12T03:23:41.180Z,1024.02
2018-01-12T03:23:41.780Z,1024.02
2018-01-12T03:23:42.381Z,1024.01
2018-01-12T03:23:42.978Z,1024.01
2018-01-12T03:23:43.583Z,1023.99
2018-01-12T03:23:44.179Z,1023.99
2018-01-12T03:23:44.781Z,1024.03
2018-01-12T03:24:38.267Z,1024.01
2018-01-12T03:24:38.832Z,1023.99
2018-01-12T03:24:39.431Z,1023.99
2018-01-12T03:24:40.043Z,1023.99
2018-01-12T03:24:40.631Z,1023.99
2018-01-12T03:24:41.234Z,1024.00
2018-01-12T03:24:41.830Z,1024.03
2018-01-12T03:24:42.430Z,1024.02
2018-01-12T03:25:36.938Z,1024.03
2018-01-12T03:25:37.521Z,1023.99
2018-01-12T03:25:38.106Z,1024.04
2018-01-12T03:25:38.707Z,1024.08
2018-01-12T03:25:39.305Z,1024.02
2018-01-12T03:25:39.910Z,1024.00
2018-01-12T03:25:40.505Z,1024.02
2018-01-12T03:25:41.107Z,1024.00
2018-01-12T03:26:34.588Z,1024.01
2018-01-12T03:26:35.158Z,1023.98